createdAt,value
2022-09-26T00:01:16.252Z,10.44
2022-09-26T00:03:45.138Z,10.47
2022-09-26T00:06:12.682Z,10.38
2022-09-26T00:08:40.291Z,10.37
2022-09-26T00:11:09.530Z,10.34
2022-09-26T00:13:38.366Z,10.47
2022-09-26T00:16:06.337Z,10.32
2022-09-26T00:18:33.667Z,10.29
2022-09-26T00:21:09.820Z,10.22
2022-09-26T00:23:37.025Z,10.16
2022-09-26T00:26:04.466Z,10.27
2022-09-26T00:28:31.791Z,10.19
2022-09-26T00:31:07.118Z,10.15
2022-09-26T00:33:34.245Z,10.20
2022-09-26T00:36:01.117Z,10.09
2022-09-26T00:38:27.829Z,10.05
2022-09-26T00:40:54.526Z,10.18
2022-09-26T00:43:45.262Z,10.06
2022-09-26T00:46:12.026Z,9.98
2022-09-26T00:48:42.005Z,9.81
2022-09-26T00:51:09.203Z,9.81
2022-09-26T00:53:42.412Z,9.71
2022-09-26T00:56:19.137Z,9.71
2022-09-26T00:59:08.830Z,9.76
2022-09-26T01:01:36.175Z,9.71
2022-09-26T01:04:05.331Z,9.76
2022-09-26T01:06:32.834Z,9.79
2022-09-26T01:09:01.832Z,9.73
2022-09-26T01:11:28.688Z,9.82
2022-09-26T01:13:57.116Z,9.80
2022-09-26T01:16:23.927Z,9.86
2022-09-26T01:18:51.429Z,9.95
2022-09-26T01:21:42.891Z,9.92
2022-09-26T01:24:46.634Z,10.05
2022-09-26T01:27:28.418Z,9.99
2022-09-26T01:30:15.410Z,10.05
2022-09-26T01:32:50.289Z,10.02
2022-09-26T01:35:35.954Z,10.12
2022-09-26T01:38:24.702Z,10.05
2022-09-26T01:41:00.422Z,9.95
2022-09-26T01:43:42.680Z,9.94
2022-09-26T01:46:25.663Z,9.84
2022-09-26T01:49:00.446Z,9.70
2022-09-26T01:51:37.296Z,9.82
2022-09-26T01:54:11.581Z,9.61
2022-09-26T01:56:40.641Z,9.46
2022-09-26T01:59:17.837Z,9.53
2022-09-26T02:01:56.578Z,9.45
2022-09-26T02:04:29.474Z,9.43
2022-09-26T02:07:04.257Z,9.47
2022-09-26T02:09:42.993Z,9.33
2022-09-26T02:12:16.723Z,9.29
2022-09-26T02:14:47.427Z,9.28
2022-09-26T02:17:19.129Z,9.30
2022-09-26T02:19:58.541Z,9.25
2022-09-26T02:22:35.300Z,9.24
2022-09-26T02:25:03.784Z,9.31
2022-09-26T02:27:30.937Z,9.02
2022-09-26T02:29:58.722Z,9.13
2022-09-26T02:32:32.110Z,9.16
2022-09-26T02:35:01.065Z,9.11
2022-09-26T02:37:30.993Z,9.16
2022-09-26T02:39:58.135Z,9.24
2022-09-26T02:42:36.513Z,9.27
2022-09-26T02:45:25.943Z,9.28
2022-09-26T02:48:02.985Z,9.27
2022-09-26T02:50:54.866Z,9.19
2022-09-26T02:53:33.963Z,9.19
2022-09-26T02:56:14.361Z,9.11
2022-09-26T02:59:13.560Z,9.13
2022-09-26T03:02:02.711Z,9.03
2022-09-26T03:04:47.308Z,8.87
2022-09-26T03:07:23.401Z,8.89
2022-09-26T03:09:52.087Z,8.98
2022-09-26T03:12:20.082Z,8.90
2022-09-26T03:14:49.039Z,8.93
2022-09-26T03:17:18.893Z,8.79
2022-09-26T03:19:53.474Z,8.86
2022-09-26T03:22:20.698Z,8.73
2022-09-26T03:24:47.499Z,8.75
2022-09-26T03:27:16.751Z,8.58
2022-09-26T03:29:45.243Z,8.64
2022-09-26T03:32:18.513Z,8.59
2022-09-26T03:34:45.453Z,8.68
2022-09-26T03:37:13.443Z,8.70
2022-09-26T03:39:40.199Z,8.79
2022-09-26T03:42:14.273Z,8.87
2022-09-26T03:44:41.856Z,8.79
2022-09-26T03:47:31.798Z,8.63
2022-09-26T03:49:58.525Z,8.56
2022-09-26T03:52:26.591Z,8.60
2022-09-26T03:54:53.989Z,8.61
2022-09-26T03:57:21.122Z,8.59
2022-09-26T03:59:55.364Z,8.44
2022-09-26T04:02:23.049Z,8.42
2022-09-26T04:05:01.898Z,8.46
2022-09-26T04:07:28.623Z,8.44
2022-09-26T04:09:55.417Z,8.40
2022-09-26T04:12:22.153Z,8.30
2022-09-26T04:14:48.914Z,8.25
2022-09-26T04:17:16.145Z,8.26
2022-09-26T04:19:45.342Z,8.20
2022-09-26T04:22:12.645Z,8.11
2022-09-26T04:24:39.586Z,8.13
2022-09-26T04:27:06.486Z,8.06
2022-09-26T04:29:33.439Z,8.05
2022-09-26T04:32:12.658Z,8.06
2022-09-26T04:34:57.218Z,8.06
2022-09-26T04:37:24.140Z,8.11
2022-09-26T04:39:50.886Z,8.02
2022-09-26T04:42:17.830Z,8.02
2022-09-26T04:44:44.749Z,7.99
2022-09-26T04:47:11.530Z,8.00
2022-09-26T04:49:58.156Z,8.01
2022-09-26T04:52:25.186Z,8.03
2022-09-26T04:54:52.157Z,7.98
2022-09-26T04:57:20.005Z,7.96
2022-09-26T04:59:47.162Z,7.95
2022-09-26T05:02:17.319Z,7.96
2022-09-26T05:04:44.299Z,8.07
2022-09-26T05:07:11.486Z,8.02
2022-09-26T05:09:38.241Z,8.01
2022-09-26T05:12:07.640Z,8.03
2022-09-26T05:14:37.270Z,8.10
2022-09-26T05:17:05.118Z,8.13
2022-09-26T05:19:32.970Z,8.16
2022-09-26T05:22:23.084Z,8.13
2022-09-26T05:25:08.381Z,8.16
2022-09-26T05:27:36.639Z,8.15
2022-09-26T05:30:04.053Z,7.99
2022-09-26T05:32:30.739Z,7.88
2022-09-26T05:34:58.062Z,7.76
2022-09-26T05:37:27.375Z,7.76
2022-09-26T05:40:12.818Z,7.77
2022-09-26T05:42:44.855Z,7.78
2022-09-26T05:45:15.100Z,7.80
2022-09-26T05:47:42.812Z,7.85
2022-09-26T05:50:10.349Z,7.75
2022-09-26T05:52:39.700Z,7.70
2022-09-26T05:55:08.684Z,7.72
2022-09-26T05:57:55.821Z,7.73
2022-09-26T06:00:29.311Z,7.69
2022-09-26T06:02:57.525Z,7.68
2022-09-26T06:05:43.014Z,7.67
2022-09-26T06:08:16.094Z,7.66
2022-09-26T06:10:50.908Z,7.68
2022-09-26T06:13:18.238Z,7.62
2022-09-26T06:18:52.670Z,7.59
2022-09-26T06:21:20.415Z,7.58
2022-09-26T06:23:51.275Z,7.59
2022-09-26T06:26:22.340Z,7.54
2022-09-26T06:28:54.890Z,7.62
2022-09-26T06:31:22.999Z,7.64
2022-09-26T06:34:08.616Z,7.70
2022-09-26T06:36:44.912Z,7.76
2022-09-26T06:39:11.711Z,7.72
2022-09-26T06:41:38.820Z,7.75
2022-09-26T06:44:24.364Z,7.80
2022-09-26T06:47:13.239Z,7.69
2022-09-26T06:49:40.362Z,7.76
2022-09-26T06:52:12.277Z,7.72
2022-09-26T06:54:39.078Z,7.71
2022-09-26T06:57:06.181Z,7.70
2022-09-26T06:59:34.699Z,7.84
2022-09-26T07:02:09.961Z,7.83
2022-09-26T07:05:13.201Z,7.94
2022-09-26T07:07:48.577Z,8.07
2022-09-26T07:10:25.311Z,8.13
2022-09-26T07:13:03.212Z,8.16
2022-09-26T07:15:33.061Z,8.10
2022-09-26T07:18:03.668Z,8.26
2022-09-26T07:20:55.858Z,8.21
2022-09-26T07:23:45.472Z,8.29
2022-09-26T07:26:12.667Z,8.27
2022-09-26T07:28:39.484Z,8.41
2022-09-26T07:31:06.323Z,8.25
2022-09-26T07:34:05.459Z,8.35
2022-09-26T07:36:32.193Z,8.21
2022-09-26T07:38:59.356Z,8.22
2022-09-26T07:41:29.378Z,8.01
2022-09-26T07:47:01.492Z,7.89
2022-09-26T07:49:46.975Z,7.85
2022-09-26T07:52:17.604Z,7.80
2022-09-26T07:55:16.763Z,7.79
2022-09-26T07:57:51.176Z,7.80
2022-09-26T08:00:26.463Z,7.76
2022-09-26T08:03:04.958Z,7.92
2022-09-26T08:05:34.486Z,7.74
2022-09-26T08:08:02.920Z,7.96
2022-09-26T08:10:50.001Z,8.03
2022-09-26T08:13:19.923Z,8.02
2022-09-26T08:16:08.258Z,8.14
2022-09-26T08:18:40.553Z,8.37
2022-09-26T08:21:07.935Z,8.34
2022-09-26T08:23:34.902Z,8.39
2022-09-26T08:26:24.008Z,8.46
2022-09-26T08:28:56.592Z,8.48
2022-09-26T08:31:23.393Z,8.51
2022-09-26T08:33:50.262Z,8.54
2022-09-26T08:36:17.057Z,8.54
2022-09-26T08:39:04.858Z,8.65
2022-09-26T08:41:49.899Z,9.46
2022-09-26T08:44:56.877Z,10.16
2022-09-26T08:47:49.594Z,10.26
2022-09-26T08:50:46.131Z,9.91
2022-09-26T08:53:19.206Z,9.43
2022-09-26T08:55:55.681Z,9.72
2022-09-26T08:58:31.996Z,9.36
2022-09-26T09:01:04.412Z,8.97
2022-09-26T09:04:30.640Z,9.14
2022-09-26T09:07:05.707Z,9.77
2022-09-26T09:09:32.843Z,10.60
2022-09-26T09:12:32.370Z,11.17
2022-09-26T09:15:28.958Z,11.36
2022-09-26T09:18:15.434Z,11.71
2022-09-26T09:21:11.486Z,11.62
2022-09-26T09:24:43.200Z,11.87
2022-09-26T09:30:29.910Z,11.39
2022-09-26T09:33:19.812Z,11.83
2022-09-26T09:36:14.954Z,12.03
2022-09-26T09:38:48.008Z,12.78
2022-09-26T09:41:32.600Z,11.58
2022-09-26T09:44:03.716Z,11.69
2022-09-26T09:46:42.675Z,11.27
2022-09-26T09:49:09.515Z,11.09
2022-09-26T09:52:02.721Z,10.27
2022-09-26T09:54:35.861Z,10.19
2022-09-26T09:57:37.121Z,10.21
2022-09-26T10:00:05.802Z,10.40
2022-09-26T10:02:53.740Z,10.25
2022-09-26T10:05:46.206Z,9.78
2022-09-26T10:08:29.495Z,9.77
2022-09-26T10:11:42.494Z,9.63
2022-09-26T10:14:34.128Z,9.85
2022-09-26T10:17:09.763Z,10.00
2022-09-26T10:19:59.456Z,10.65
2022-09-26T10:22:32.714Z,11.18
2022-09-26T10:25:22.677Z,10.76
2022-09-26T10:28:00.243Z,10.83
2022-09-26T10:30:33.460Z,10.94
2022-09-26T10:33:05.057Z,11.12
2022-09-26T10:35:53.644Z,10.81
2022-09-26T10:38:29.204Z,10.85
2022-09-26T10:41:25.256Z,11.23
2022-09-26T10:43:56.365Z,11.20
2022-09-26T10:46:45.439Z,11.28
2022-09-26T10:49:47.706Z,11.56
2022-09-26T10:52:35.578Z,11.62
2022-09-26T10:55:43.895Z,11.09
2022-09-26T10:58:29.521Z,10.76
2022-09-26T11:01:02.630Z,10.66
2022-09-26T11:03:44.474Z,10.32
2022-09-26T11:06:29.176Z,10.50
2022-09-26T11:09:06.634Z,10.71
2022-09-26T11:11:52.358Z,10.88
2022-09-26T11:14:32.727Z,11.49
2022-09-26T11:17:08.877Z,11.17
2022-09-26T11:19:45.724Z,11.47
2022-09-26T11:22:38.297Z,11.61
2022-09-26T11:25:18.504Z,11.42
2022-09-26T11:27:51.784Z,11.45
2022-09-26T11:30:29.476Z,11.37
2022-09-26T11:33:08.732Z,11.76
2022-09-26T11:36:04.203Z,11.24
2022-09-26T11:38:38.291Z,11.02
2022-09-26T11:41:18.181Z,11.02
2022-09-26T11:43:47.857Z,11.15
2022-09-26T11:47:20.729Z,11.00
2022-09-26T11:50:15.472Z,10.48
2022-09-26T11:53:29.809Z,10.48
2022-09-26T11:56:25.645Z,10.59
2022-09-26T11:59:07.970Z,10.61
2022-09-26T12:02:01.980Z,10.91
2022-09-26T12:04:37.463Z,10.59
2022-09-26T12:07:17.982Z,10.72
2022-09-26T12:10:04.016Z,10.79
2022-09-26T12:12:58.734Z,11.22
2022-09-26T12:15:33.769Z,11.59
2022-09-26T12:18:23.794Z,11.67
2022-09-26T12:20:58.203Z,12.00
2022-09-26T12:23:33.853Z,12.17
2022-09-26T12:26:14.297Z,12.09
2022-09-26T12:29:01.681Z,12.06
2022-09-26T12:31:40.378Z,12.18
2022-09-26T12:34:37.717Z,11.83
2022-09-26T12:37:27.694Z,11.31
2022-09-26T12:39:57.457Z,11.18
2022-09-26T12:42:48.824Z,11.13
2022-09-26T12:45:18.238Z,11.03
2022-09-26T12:48:10.426Z,10.90
2022-09-26T12:50:46.562Z,11.02
2022-09-26T12:53:35.301Z,11.18
2022-09-26T12:56:09.212Z,11.21
2022-09-26T12:58:57.956Z,11.50
2022-09-26T13:01:32.487Z,11.60
2022-09-26T13:04:17.583Z,11.28
2022-09-26T13:07:17.890Z,10.54
2022-09-26T13:09:56.897Z,10.40
2022-09-26T13:12:31.573Z,10.38
2022-09-26T13:15:24.446Z,10.27
2022-09-26T13:17:58.329Z,10.38
2022-09-26T13:20:43.538Z,10.41
2022-09-26T13:23:35.780Z,10.36
2022-09-26T13:26:14.562Z,10.48
2022-09-26T13:29:17.479Z,10.92
2022-09-26T13:31:49.290Z,11.16
2022-09-26T13:34:38.058Z,11.60
2022-09-26T13:37:14.860Z,11.32
2022-09-26T13:39:51.250Z,10.44
2022-09-26T13:42:37.870Z,9.99
2022-09-26T13:45:35.718Z,9.67
2022-09-26T13:48:38.985Z,9.77
2022-09-26T13:54:26.988Z,9.61
2022-09-26T13:56:54.466Z,9.73
2022-09-26T13:59:32.391Z,9.62
2022-09-26T14:02:17.469Z,9.63
2022-09-26T14:04:48.686Z,9.61
2022-09-26T14:07:36.059Z,9.51
2022-09-26T14:10:34.823Z,9.70
2022-09-26T14:13:10.561Z,9.70
2022-09-26T14:15:46.810Z,9.44
2022-09-26T14:18:25.493Z,9.79
2022-09-26T14:21:12.635Z,9.80
2022-09-26T14:23:45.452Z,9.86
2022-09-26T14:26:43.890Z,10.05
2022-09-26T14:29:29.365Z,10.11
2022-09-26T14:32:01.685Z,10.02
2022-09-26T14:34:38.165Z,9.91
2022-09-26T14:37:25.379Z,9.92
2022-09-26T14:40:01.441Z,9.80
2022-09-26T14:42:34.290Z,9.92
2022-09-26T14:45:19.003Z,9.89
2022-09-26T14:47:55.073Z,9.90
2022-09-26T14:50:30.176Z,10.02
2022-09-26T14:53:00.248Z,9.88
2022-09-26T14:55:28.804Z,9.75
2022-09-26T14:58:16.240Z,9.77
2022-09-26T15:00:49.668Z,9.73
2022-09-26T15:03:19.385Z,9.52
2022-09-26T15:05:47.617Z,9.67
2022-09-26T15:08:24.378Z,9.81
2022-09-26T15:10:53.225Z,9.78
2022-09-26T15:13:38.622Z,9.88
2022-09-26T15:16:25.800Z,9.78
2022-09-26T15:18:52.666Z,9.83
2022-09-26T15:21:33.703Z,9.98
2022-09-26T15:24:04.591Z,10.16
2022-09-26T15:26:35.318Z,10.24
2022-09-26T15:29:06.269Z,10.06
2022-09-26T15:31:44.484Z,9.95
2022-09-26T15:34:22.092Z,9.64
2022-09-26T15:36:57.398Z,9.42
2022-09-26T15:39:32.983Z,9.34
2022-09-26T15:42:19.668Z,9.19
2022-09-26T15:44:58.686Z,9.21
2022-09-26T15:47:25.780Z,9.13
2022-09-26T15:50:10.015Z,8.99
2022-09-26T15:53:01.290Z,9.08
2022-09-26T15:55:33.340Z,9.08
2022-09-26T15:58:02.840Z,9.19
2022-09-26T16:00:37.022Z,9.21
2022-09-26T16:03:18.602Z,9.19
2022-09-26T16:05:46.059Z,8.99
2022-09-26T16:08:24.979Z,8.71
2022-09-26T16:11:00.474Z,8.57
2022-09-26T16:13:33.592Z,8.43
2022-09-26T16:16:06.106Z,8.48
2022-09-26T16:18:39.882Z,8.49
2022-09-26T16:21:15.494Z,8.39
2022-09-26T16:24:36.434Z,8.42
2022-09-26T16:27:23.047Z,8.39
2022-09-26T16:29:52.193Z,8.29
2022-09-26T16:32:21.346Z,8.41
2022-09-26T16:34:49.000Z,8.37
2022-09-26T16:37:20.659Z,8.30
2022-09-26T16:39:59.974Z,8.29
2022-09-26T16:42:32.790Z,8.12
2022-09-26T16:45:05.096Z,8.28
2022-09-26T16:47:33.367Z,8.30
2022-09-26T16:50:25.586Z,8.27
2022-09-26T16:52:52.979Z,8.27
2022-09-26T16:55:21.277Z,8.31
2022-09-26T16:57:55.658Z,8.34
2022-09-26T17:00:52.914Z,8.32
2022-09-26T17:03:26.118Z,8.18
2022-09-26T17:05:55.701Z,8.14
2022-09-26T17:08:23.628Z,8.04
2022-09-26T17:10:50.438Z,8.11
2022-09-26T17:13:23.935Z,8.07
2022-09-26T17:15:54.670Z,8.18
2022-09-26T17:18:29.032Z,8.10
2022-09-26T17:20:59.134Z,8.22
2022-09-26T17:23:42.393Z,8.19
2022-09-26T17:26:21.714Z,8.31
2022-09-26T17:28:50.427Z,8.29
2022-09-26T17:31:21.548Z,8.35
2022-09-26T17:33:52.402Z,8.18
2022-09-26T17:36:27.956Z,8.30
2022-09-26T17:38:57.718Z,8.10
2022-09-26T17:41:28.003Z,8.11
2022-09-26T17:44:00.957Z,7.94
2022-09-26T17:46:28.681Z,7.86
2022-09-26T17:48:56.342Z,7.83
2022-09-26T17:51:24.200Z,7.86
2022-09-26T17:53:52.454Z,7.77
2022-09-26T17:56:19.924Z,7.57
2022-09-26T17:58:48.044Z,7.58
2022-09-26T18:01:33.610Z,7.45
2022-09-26T18:04:06.281Z,7.40
2022-09-26T18:06:33.398Z,7.31
2022-09-26T18:09:07.469Z,7.26
2022-09-26T18:11:36.297Z,7.32
2022-09-26T18:14:06.190Z,7.25
2022-09-26T18:16:33.151Z,7.20
2022-09-26T18:19:06.085Z,7.17
2022-09-26T18:21:34.163Z,7.11
2022-09-26T18:24:06.127Z,7.11
2022-09-26T18:26:42.280Z,7.08
2022-09-26T18:29:15.340Z,7.09
2022-09-26T18:31:45.249Z,7.00
2022-09-26T18:34:14.001Z,7.02
2022-09-26T18:36:40.692Z,6.93
2022-09-26T18:39:07.522Z,6.97
2022-09-26T18:41:35.255Z,6.97
2022-09-26T18:44:03.048Z,7.03
2022-09-26T18:46:30.569Z,7.10
2022-09-26T18:48:58.869Z,7.13
2022-09-26T18:51:26.622Z,7.29
2022-09-26T18:53:53.644Z,7.23
2022-09-26T18:56:38.903Z,7.00
2022-09-26T18:59:05.601Z,6.93
2022-09-26T19:01:38.519Z,6.85
2022-09-26T19:04:10.210Z,6.81
2022-09-26T19:06:40.645Z,6.79
2022-09-26T19:09:13.095Z,6.70
2022-09-26T19:11:39.832Z,6.71
2022-09-26T19:14:14.608Z,6.63
2022-09-26T19:16:46.020Z,6.49
2022-09-26T19:19:13.438Z,6.55
2022-09-26T19:21:58.612Z,6.57
2022-09-26T19:24:25.212Z,6.51
2022-09-26T19:26:53.891Z,6.46
2022-09-26T19:29:35.050Z,6.37
2022-09-26T19:32:03.333Z,6.37
2022-09-26T19:34:32.922Z,6.26
2022-09-26T19:37:02.331Z,6.45
2022-09-26T19:39:31.787Z,6.47
2022-09-26T19:41:58.537Z,6.53
2022-09-26T19:44:25.282Z,6.52
2022-09-26T19:46:52.067Z,6.67
2022-09-26T19:49:19.884Z,6.72
2022-09-26T19:51:47.165Z,6.70
2022-09-26T19:54:17.581Z,6.72
2022-09-26T19:56:45.637Z,6.61
2022-09-26T19:59:13.613Z,6.53
2022-09-26T20:01:42.972Z,6.39
2022-09-26T20:04:15.843Z,6.28
2022-09-26T20:06:42.973Z,6.24
2022-09-26T20:09:17.933Z,6.28
2022-09-26T20:11:45.248Z,6.27
2022-09-26T20:14:27.336Z,6.15
2022-09-26T20:16:57.838Z,6.23
2022-09-26T20:19:28.217Z,6.21
2022-09-26T20:21:59.824Z,6.17
2022-09-26T20:24:29.600Z,6.07
2022-09-26T20:26:56.669Z,6.12
2022-09-26T20:29:23.430Z,6.17
2022-09-26T20:31:50.089Z,6.25
2022-09-26T20:34:17.300Z,6.13
2022-09-26T20:36:51.569Z,6.20
2022-09-26T20:39:24.271Z,6.06
2022-09-26T20:41:52.538Z,6.10
2022-09-26T20:44:28.175Z,6.08
2022-09-26T20:46:59.030Z,6.08
2022-09-26T20:49:30.147Z,6.14
2022-09-26T20:51:59.733Z,6.15
2022-09-26T20:54:30.265Z,6.17
2022-09-26T20:56:58.175Z,6.19
2022-09-26T20:59:26.008Z,6.13
2022-09-26T21:01:54.277Z,6.23
2022-09-26T21:04:29.956Z,6.08
2022-09-26T21:06:56.731Z,6.26
2022-09-26T21:09:23.629Z,6.26
2022-09-26T21:11:50.402Z,6.32
2022-09-26T21:14:18.287Z,6.25
2022-09-26T21:16:51.276Z,6.22
2022-09-26T21:19:21.749Z,6.08
2022-09-26T21:21:52.129Z,6.23
2022-09-26T21:24:32.355Z,6.23
2022-09-26T21:26:59.299Z,6.38
2022-09-26T21:29:27.419Z,6.39
2022-09-26T21:31:56.184Z,6.30
2022-09-26T21:34:25.880Z,6.46
2022-09-26T21:36:56.031Z,6.33
2022-09-26T21:39:25.216Z,6.29
2022-09-26T21:41:58.512Z,6.14
2022-09-26T21:44:39.341Z,6.17
2022-09-26T21:47:09.688Z,6.21
2022-09-26T21:49:36.449Z,6.12
2022-09-26T21:52:13.016Z,6.04
2022-09-26T21:54:44.041Z,6.02
2022-09-26T21:57:19.567Z,5.99
2022-09-26T21:59:48.187Z,6.02
2022-09-26T22:02:14.856Z,6.14
2022-09-26T22:04:41.641Z,6.11
2022-09-26T22:07:08.410Z,6.17
2022-09-26T22:09:35.431Z,6.25
2022-09-26T22:12:02.141Z,6.13
2022-09-26T22:14:28.878Z,6.23
2022-09-26T22:16:55.859Z,6.23
2022-09-26T22:19:23.294Z,6.16
2022-09-26T22:21:51.168Z,6.27
2022-09-26T22:24:17.902Z,6.20
2022-09-26T22:26:45.276Z,6.17
2022-09-26T22:29:12.884Z,6.06
2022-09-26T22:31:39.576Z,6.06
2022-09-26T22:34:06.289Z,6.06
2022-09-26T22:36:33.260Z,5.98
2022-09-26T22:39:00.131Z,6.08
2022-09-26T22:41:26.762Z,6.14
2022-09-26T22:43:53.556Z,6.31
2022-09-26T22:46:20.312Z,6.09
2022-09-26T22:48:47.816Z,6.29
2022-09-26T22:51:16.394Z,6.22
2022-09-26T22:53:44.633Z,6.27
2022-09-26T22:56:14.985Z,6.27
2022-09-26T22:58:50.701Z,6.18
2022-09-26T23:01:22.467Z,6.21
2022-09-26T23:03:49.967Z,6.30
2022-09-26T23:06:16.780Z,6.27
2022-09-26T23:08:43.445Z,6.36
2022-09-26T23:11:12.078Z,6.29
2022-09-26T23:13:39.596Z,6.19
2022-09-26T23:16:08.782Z,6.20
2022-09-26T23:18:37.284Z,6.19
2022-09-26T23:21:08.839Z,6.33
2022-09-26T23:23:36.030Z,6.23
2022-09-26T23:26:05.308Z,6.22
2022-09-26T23:28:33.453Z,6.29
2022-09-26T23:31:07.925Z,6.38
2022-09-26T23:33:34.801Z,6.42
2022-09-26T23:36:02.268Z,6.21
2022-09-26T23:38:29.191Z,6.28
2022-09-26T23:40:56.218Z,6.16
2022-09-26T23:43:23.122Z,6.18
2022-09-26T23:45:50.051Z,6.26
2022-09-26T23:48:17.143Z,6.26
2022-09-26T23:50:45.737Z,6.28
2022-09-26T23:53:13.890Z,6.16
2022-09-26T23:55:41.122Z,6.26
2022-09-26T23:58:08.019Z,6.35
